Guymon Municipal Airport
KGUY : now visible

Airfield :











YOU CAN JOIN US ON...

 
LOGIN :

Register | Disclaimer

   EN    FR    IT 

 









Legend :    VFR   Marginal VFR   IFR   Intensive IFR   Very Intensive IFR
Visi :
Ceiling :
>= 8 km
>= 3000ft
5 to 8 km
1000 to 3000 ft
1500m to 5 km
500 to 1000 ft
800 to 1500m
200 to 500 ft
< 800m
< 200 ft
Symbols :   Thunderstorms  Fog  Heavy snow  Heavy precipitations  Wind > 20 kt






- Airport Elevation : 3123 ft


KGUY - Guymon Municipal

CURRENT METAR :
  • 182253Z AUTO 17010G19KT 10SM CLR 31/18 A3013 RMK AO2 SLP157 T03060178

EXPIRED METARs :
  • 182153Z AUTO 14011KT 10SM FEW060 31/18 A3014 RMK AO2 SLP159 T03110178
  • 182053Z AUTO 16008KT 10SM FEW060 31/18 A3016 RMK AO2 SLP165 T03060178 58017
  • 181953Z AUTO 15010G19KT 10SM FEW060 31/19 A3017 RMK AO2 SLP170 T03110189
  • 181853Z AUTO 18009KT 10SM FEW049 29/19 A3020 RMK AO2 SLP179 T02940189

TAF KGUY
Valid from the 19 at 00:00 until the 20 at 00:00 UTC


182320Z 1900/1924 14012KT P6SM FEW210
FM190600 16007KT P6SM BKN230
FM191500 19013KT P6SM FEW250
FM192200 16013G21KT P6SM FEW230
KZKC FIR / North America



MET'MAP, your aeronautical weather chart ! - Copyright ORBIFLY December 2007 - Disclaimer

ORBIFLY MET'MAP TEAM :

Programming & Development : Alexandra Zaïnal
Original concept : Baudouin d'Aumeries
Technical & hardware support : Manuel Goepfert
Assistance : Marc-Olivier Méhu




SOURCES & CREDITS :

   NOAA       Earth
Advisory